Ana Sayfa
METAR-TAF:

METAR-TAF

Havaalanları :

Mar del Plata, Arjantin

Enlem: 37-56S, Boylam: 057-35W, yükseklik: 18 m

Güncel hava durumu gözlemi

Rapor saat 11:00 UTC de 56 dakika önce yapıldı.
Rüzgar kuzeybatıdan 9 kt
Sıcaklık 11°C
Nem 87%
Basınç 1007 hPa
Görüş mesafesi 10 km veya daha fazla
1500 m altında bulut yok ve kümülonimbus yok

METAR: SAZM 171100Z 31009KT CAVOK 11/09 Q1007

Saat: 08:56 (11:56 UTC)

Tahmin

Rapor saat 05:00 UTC de 6 saat ve 56 dakika önce yapıldı.
Ayın 17'si saat 06 UTC'den ayın 18'si saat 06 UTC'ye kadar geçerli Tahmin
Rüzgar batı/kuzeybatıdan 10 kt
Görüş mesafesi 10 km veya daha fazla
1500 m altında bulut yok ve kümülonimbus yok
Dönüşüyor
ayın 17'si saat 12 UTC'den ayın 17'si saat 14 UTC'ye kadar
Rüzgar batı/güneybatıdan 15 kt ve 25 kt'a kadar ani rüzgarlar

TAF: SAZM 170500Z 1706/1806 29010KT CAVOK TX19/1718Z TN12/1710Z BECMG 1712/1714 25015G25KT

4.000'den fazla havaalanı için hava durumu gözlemleri ve tahminleri (METAR ve TAF raporları).

Kullanılabilir istasyonlar harita üzerinde sarı ve kırmızı noktalarla gösterilir.

İstasyonun adını görmek için fareyi noktanın üzerinde gezdirin.

Sonrasında hava gözlem ve tahminlerini görmek için tıklayın.

Haritayı değiştirmek için: yaklaştırmak için siyah artı işaretli yeşil düğmeye ve uzaklaştırmak için de eksi işaretli düğmeye hızla tıklayın; bitişik haritalar için yeşil okları kullanın.


METAR-TAF: